Time;durP1;ratioP1;P1;durP2;ratioP2;P2;SDS_P1;SDS_P2;PMS_P1;PMS_P2;Temp;Humidity;BMP_temperature;BMP_pressure;BME280_temperature;BME280_humidity;BME280_pressure;Samples;Min_cycle;Max_cycle;Signal;HPM_P1;HPM_P2
2022/09/16 00:00:55;;;;;;;4.60;1.57;;;15.00;75.00;;;17.75;56.20;100570.78;5052880;28;20279;-55
2022/09/16 00:03:24;;;;;;;4.67;1.07;;;15.00;75.20;;;17.75;56.26;100558.28;5053132;28;20206;-56
2022/09/16 00:05:53;;;;;;;2.47;1.00;;;14.90;75.40;;;17.74;56.42;100567.31;5053207;28;20827;-55
2022/09/16 00:08:21;;;;;;;3.90;1.17;;;14.90;75.50;;;17.74;56.05;100571.81;5053216;28;20194;-55
2022/09/16 00:10:49;;;;;;;4.53;1.50;;;14.90;75.40;;;17.74;56.19;100572.63;5052013;28;20200;-55
2022/09/16 00:13:17;;;;;;;4.00;1.10;;;14.90;75.40;;;17.75;56.11;100573.44;5033152;28;20769;-56
2022/09/16 00:15:49;;;;;;;2.70;1.20;;;14.90;75.40;;;17.72;56.08;100568.56;5034477;28;20281;-57
2022/09/16 00:18:19;;;;;;;3.30;1.30;;;14.90;75.40;;;17.71;56.10;100569.63;5033926;28;20312;-57
2022/09/16 00:20:50;;;;;;;3.63;0.90;;;14.90;75.30;;;17.69;56.30;100579.66;5033576;28;20206;-55
2022/09/16 00:23:18;;;;;;;2.37;0.80;;;14.90;75.60;;;17.65;56.35;100581.16;5033791;28;20703;-57
2022/09/16 00:25:51;;;;;;;2.27;0.87;;;14.90;76.10;;;17.62;56.20;100578.94;5034149;28;20209;-54
2022/09/16 00:28:20;;;;;;;4.37;1.40;;;14.80;75.30;;;17.57;56.41;100577.75;5033892;28;20185;-55
2022/09/16 00:30:48;;;;;;;1.60;1.10;;;14.80;75.30;;;17.54;56.72;100577.41;5032125;28;20199;-56
2022/09/16 00:33:16;;;;;;;4.23;1.27;;;14.80;75.60;;;17.51;56.35;100577.81;5032557;28;20619;-56
2022/09/16 00:35:43;;;;;;;2.87;1.10;;;14.80;75.50;;;17.48;56.59;100579.06;5032791;28;20669;-54
2022/09/16 00:38:13;;;;;;;2.10;1.10;;;14.70;75.50;;;17.46;56.56;100573.16;5032387;28;20214;-53
2022/09/16 00:40:44;;;;;;;4.10;1.13;;;14.70;75.60;;;17.44;56.54;100569.91;5032254;28;20652;-54
2022/09/16 00:43:13;;;;;;;2.57;1.30;;;14.70;75.80;;;17.45;56.75;100568.88;5032480;28;20210;-53
2022/09/16 00:45:45;;;;;;;3.40;1.10;;;14.70;76.00;;;17.45;56.91;100568.88;5033399;28;20657;-57
2022/09/16 00:48:20;;;;;;;4.37;1.20;;;14.70;76.20;;;17.48;56.82;100573.75;5032373;28;20258;-56
2022/09/16 00:50:53;;;;;;;2.33;1.20;;;14.70;76.20;;;17.54;56.93;100588.06;5031925;28;20187;-56
2022/09/16 00:53:27;;;;;;;1.63;0.87;;;14.70;76.50;;;17.61;56.91;100603.94;5032432;28;20211;-56
2022/09/16 00:55:59;;;;;;;3.37;1.10;;;14.70;76.80;;;17.66;56.67;100606.75;5032011;28;20749;-54
2022/09/16 00:58:39;;;;;;;2.73;1.17;;;14.70;76.70;;;17.74;57.01;100603.75;5031669;28;20210;-54
2022/09/16 01:01:07;;;;;;;4.70;1.10;;;14.80;77.00;;;17.80;56.73;100587.72;5031785;28;20232;-57
2022/09/16 01:03:43;;;;;;;4.53;1.23;;;14.80;77.00;;;17.87;56.50;100582.28;5050541;28;20706;-56
2022/09/16 01:06:13;;;;;;;3.03;1.20;;;14.90;77.10;;;17.92;56.47;100579.78;5052064;28;20174;-56
2022/09/16 01:08:44;;;;;;;3.23;1.30;;;14.90;76.80;;;17.95;56.51;100584.63;5052313;28;20175;-54
2022/09/16 01:11:12;;;;;;;3.27;1.20;;;15.00;76.80;;;17.97;56.63;100580.69;5051992;28;20208;-55
2022/09/16 01:13:41;;;;;;;3.60;1.10;;;15.00;76.80;;;17.98;56.62;100565.53;5052419;28;20206;-54
2022/09/16 01:16:19;;;;;;;3.50;1.20;;;15.00;77.00;;;17.93;56.48;100573.38;5052000;28;20224;-56
2022/09/16 01:18:59;;;;;;;3.90;1.20;;;15.00;76.70;;;17.85;56.62;100563.06;5049968;28;20224;-55
2022/09/16 01:21:44;;;;;;;1.97;1.10;;;15.00;76.60;;;17.71;56.79;100567.75;5051653;28;20189;-56
2022/09/16 01:24:47;;;;;;;8.60;1.40;;;15.00;76.50;;;17.59;57.27;100581.00;5050708;28;20272;-57
2022/09/16 01:27:57;;;;;;;3.13;1.27;;;14.90;76.70;;;17.51;57.67;100578.66;5051780;28;20232;-56
2022/09/16 01:30:52;;;;;;;3.47;1.27;;;14.90;77.10;;;17.52;57.66;100569.63;5051595;28;20220;-55
2022/09/16 01:33:38;;;;;;;3.87;1.57;;;14.80;77.30;;;17.59;57.54;100586.31;5050649;28;20218;-54
2022/09/16 01:36:30;;;;;;;4.40;1.50;;;14.80;77.30;;;17.63;57.55;100585.88;5049968;28;20228;-54
2022/09/16 01:39:17;;;;;;;2.63;1.33;;;14.80;77.40;;;17.67;57.54;100579.06;5051541;28;20206;-56
2022/09/16 01:42:09;;;;;;;4.27;1.50;;;14.90;77.60;;;17.68;57.43;100581.53;5051505;28;20605;-56
2022/09/16 01:44:45;;;;;;;2.80;1.53;;;14.90;77.50;;;17.70;57.56;100573.31;5051766;28;20197;-56
2022/09/16 01:47:26;;;;;;;4.43;1.50;;;14.90;77.20;;;17.68;57.22;100567.41;5051780;28;20329;-54
2022/09/16 01:50:04;;;;;;;2.70;1.17;;;14.80;77.70;;;17.64;57.62;100574.22;5051680;28;20215;-53
2022/09/16 01:52:45;;;;;;;3.03;1.50;;;14.80;77.60;;;17.58;57.30;100574.06;5049929;28;20220;-56
2022/09/16 01:55:22;;;;;;;4.17;1.77;;;14.80;76.80;;;17.55;57.13;100563.88;5031565;28;20198;-56
2022/09/16 01:57:58;;;;;;;3.60;1.20;;;14.80;77.00;;;17.53;57.08;100565.94;5031585;28;20190;-56
2022/09/16 02:00:26;;;;;;;5.37;1.30;;;14.70;76.80;;;17.52;57.31;100569.63;5031154;28;20285;-56
2022/09/16 02:03:01;;;;;;;3.53;1.10;;;14.70;77.10;;;17.48;57.49;100567.59;5031276;28;20233;-57
2022/09/16 02:05:36;;;;;;;3.47;1.40;;;14.70;77.20;;;17.43;57.38;100575.44;5031380;28;20171;-57
2022/09/16 02:08:09;;;;;;;4.10;1.30;;;14.70;77.20;;;17.37;57.44;100566.53;5032519;28;20182;-56
2022/09/16 02:10:42;;;;;;;4.53;1.60;;;14.60;77.10;;;17.35;57.43;100568.56;5036236;28;20191;-56
2022/09/16 02:13:18;;;;;;;1.03;0.83;;;14.60;77.40;;;17.33;57.76;100560.00;5035214;28;20281;-57
2022/09/16 02:15:52;;;;;;;3.07;1.20;;;14.60;77.50;;;17.35;57.83;100565.91;5035436;28;20195;-55
2022/09/16 02:18:27;;;;;;;3.10;1.13;;;14.60;77.90;;;17.36;57.93;100564.88;5035262;28;20190;-55
2022/09/16 02:20:59;;;;;;;2.53;1.00;;;14.60;78.00;;;17.39;57.64;100564.44;5035126;28;20660;-56
2022/09/16 02:23:36;;;;;;;1.47;1.00;;;14.60;78.00;;;17.39;57.66;100563.63;5035040;28;20210;-54
2022/09/16 02:26:08;;;;;;;2.93;1.20;;;14.60;77.90;;;17.40;57.54;100560.75;5035061;28;20233;-54
2022/09/16 02:28:42;;;;;;;2.33;1.00;;;14.60;78.60;;;17.40;57.61;100555.41;5036461;28;20194;-55
2022/09/16 02:31:13;;;;;;;3.93;1.37;;;14.60;77.70;;;17.43;57.59;100557.63;5035232;28;20190;-53
2022/09/16 02:33:52;;;;;;;4.30;1.27;;;14.60;77.70;;;17.45;57.70;100568.88;5034947;28;20211;-55
2022/09/16 02:36:24;;;;;;;2.70;1.40;;;14.60;77.60;;;17.47;57.39;100572.13;5035064;28;20167;-54
2022/09/16 02:38:56;;;;;;;3.90;1.10;;;14.60;77.80;;;17.51;57.32;100584.00;5035525;28;20210;-55
2022/09/16 02:41:24;;;;;;;2.07;1.00;;;14.60;78.10;;;17.54;57.44;100572.88;5034863;28;20648;-55
2022/09/16 02:43:51;;;;;;;2.93;1.03;;;14.60;77.90;;;17.54;57.41;100572.88;5036116;28;20214;-56
2022/09/16 02:46:36;;;;;;;1.37;0.73;;;14.60;78.00;;;17.52;57.54;100577.63;5034967;28;20214;-54
2022/09/16 02:49:16;;;;;;;1.77;1.03;;;14.60;78.00;;;17.53;57.33;100573.94;5034725;28;20636;-55
2022/09/16 02:51:56;;;;;;;2.63;1.03;;;14.60;78.10;;;17.56;57.39;100570.81;5034766;28;20594;-56
2022/09/16 02:54:38;;;;;;;1.13;0.80;;;14.60;78.20;;;17.55;57.71;100563.06;5035363;28;20190;-54
2022/09/16 02:57:08;;;;;;;5.20;1.20;;;14.60;78.10;;;17.54;57.50;100570.22;5034879;28;20639;-55
2022/09/16 02:59:36;;;;;;;4.33;1.17;;;14.60;77.70;;;17.51;57.36;100572.50;5034370;28;20227;-54
2022/09/16 03:02:06;;;;;;;4.20;1.10;;;14.60;77.70;;;17.46;57.58;100564.38;5035034;28;20230;-56
2022/09/16 03:04:35;;;;;;;0.80;0.80;;;14.60;77.70;;;17.44;57.34;100566.44;5034276;28;20210;-57
2022/09/16 03:07:06;;;;;;;2.50;0.90;;;14.60;77.50;;;17.38;57.20;100552.16;5034114;28;20634;-58
2022/09/16 03:09:39;;;;;;;1.90;1.00;;;14.60;77.40;;;17.31;57.31;100556.75;5034320;28;20183;-56
2022/09/16 03:12:28;;;;;;;1.20;1.00;;;14.60;77.30;;;17.21;57.68;100551.13;5033911;28;20214;-53
2022/09/16 03:15:17;;;;;;;1.20;0.70;;;14.50;77.30;;;17.13;57.58;100548.78;5034428;28;20175;-56
2022/09/16 03:18:10;;;;;;;3.13;1.10;;;14.50;77.40;;;17.06;57.91;100550.72;5034327;28;20248;-55
2022/09/16 03:20:50;;;;;;;1.60;0.90;;;14.40;77.20;;;17.02;57.83;100549.50;5051991;28;20285;-57
2022/09/16 03:23:35;;;;;;;2.37;1.03;;;14.40;77.60;;;16.98;57.87;100553.66;5053514;28;20214;-54
2022/09/16 03:26:14;;;;;;;3.53;0.97;;;14.30;77.60;;;16.95;58.17;100546.09;5052921;28;20216;-53
2022/09/16 03:28:53;;;;;;;2.33;1.30;;;14.30;77.90;;;16.94;58.36;100555.13;5054056;28;20650;-53
2022/09/16 03:31:28;;;;;;;3.50;1.13;;;14.20;78.00;;;16.92;58.26;100562.53;5053716;28;20662;-54
2022/09/16 03:34:07;;;;;;;4.07;1.50;;;14.20;78.20;;;16.94;58.33;100560.47;5053907;28;20181;-56
2022/09/16 03:36:44;;;;;;;6.33;1.23;;;14.20;78.50;;;16.95;58.31;100556.75;5052047;28;20196;-55
2022/09/16 03:39:13;;;;;;;3.03;1.20;;;14.20;78.60;;;16.99;58.63;100562.44;5053484;28;20209;-56
2022/09/16 03:41:41;;;;;;;3.50;1.10;;;14.20;78.80;;;17.01;58.35;100566.53;5052075;28;20197;-53
2022/09/16 03:44:09;;;;;;;1.73;0.90;;;14.20;78.90;;;17.07;58.51;100557.66;5053340;28;20202;-54
2022/09/16 03:46:36;;;;;;;2.80;0.90;;;14.20;79.40;;;17.11;58.59;100558.84;5053600;28;20585;-54
2022/09/16 03:49:04;;;;;;;1.70;0.90;;;14.20;79.20;;;17.12;58.66;100551.66;5053253;28;20190;-55
2022/09/16 03:51:31;;;;;;;1.57;0.83;;;14.20;79.30;;;17.14;58.67;100550.41;5052965;28;20193;-53
2022/09/16 03:54:00;;;;;;;3.10;1.13;;;14.30;79.30;;;17.17;58.47;100544.66;5051726;28;20194;-55
2022/09/16 03:56:27;;;;;;;3.47;0.97;;;14.30;80.20;;;17.19;58.48;100545.22;5053258;28;20240;-55
2022/09/16 03:58:54;;;;;;;4.27;1.40;;;14.30;79.40;;;17.22;58.53;100543.97;5052974;28;20570;-58
2022/09/16 04:01:21;;;;;;;5.43;1.20;;;14.30;79.60;;;17.22;58.54;100550.13;5052636;28;20205;-54
2022/09/16 04:03:51;;;;;;;1.40;0.97;;;14.30;79.60;;;17.23;58.79;100543.78;5052780;28;20214;-53
2022/09/16 04:06:18;;;;;;;5.43;1.23;;;14.30;79.50;;;17.22;58.73;100546.63;5053002;28;20218;-57
2022/09/16 04:08:49;;;;;;;1.27;1.00;;;14.40;79.30;;;17.20;58.63;100538.06;5052734;28;20240;-56
2022/09/16 04:11:18;;;;;;;2.67;1.10;;;14.30;79.10;;;17.17;58.48;100534.00;5040113;28;20233;-56
2022/09/16 04:13:45;;;;;;;5.20;1.23;;;14.40;79.10;;;17.14;58.50;100531.78;5032998;28;20241;-57
2022/09/16 04:16:20;;;;;;;5.37;1.30;;;14.40;79.10;;;17.11;58.62;100534.09;5032755;28;20260;-54
2022/09/16 04:18:48;;;;;;;7.57;1.93;;;14.30;79.00;;;17.05;58.62;100530.47;5032777;28;20229;-57
2022/09/16 04:21:16;;;;;;;2.30;1.33;;;14.30;79.60;;;17.02;59.01;100528.25;5032427;28;20753;-57
2022/09/16 04:23:44;;;;;;;3.87;1.10;;;14.30;78.90;;;17.00;58.92;100532.97;5032687;28;20647;-54
2022/09/16 04:26:11;;;;;;;3.00;1.20;;;14.30;79.10;;;16.99;58.76;100542.00;5033060;28;20187;-55
2022/09/16 04:28:40;;;;;;;3.43;1.17;;;14.20;78.90;;;17.01;59.06;100544.41;5033899;28;20709;-56
2022/09/16 04:31:12;;;;;;;3.83;1.40;;;14.20;79.20;;;17.03;59.13;100543.16;5031421;28;20195;-56
2022/09/16 04:33:40;;;;;;;1.90;1.40;;;14.20;79.50;;;17.08;59.03;100545.97;5032792;28;20221;-57
2022/09/16 04:36:11;;;;;;;3.93;1.20;;;14.20;79.60;;;17.08;58.80;100540.66;5033006;28;20601;-56
2022/09/16 04:38:40;;;;;;;3.30;1.67;;;14.20;79.10;;;17.09;58.57;100536.94;5032429;28;20232;-54
2022/09/16 04:41:12;;;;;;;1.73;1.27;;;14.30;79.20;;;17.08;58.76;100535.34;5032902;28;20218;-57
2022/09/16 04:43:41;;;;;;;7.40;1.10;;;14.20;78.90;;;17.08;58.57;100535.34;5033219;28;20260;-55
2022/09/16 04:46:09;;;;;;;2.17;1.17;;;14.20;78.80;;;17.08;58.39;100532.69;5033584;28;20248;-55
2022/09/16 04:48:37;;;;;;;2.33;0.97;;;14.30;78.70;;;17.07;58.29;100524.94;5033271;28;20186;-58
2022/09/16 04:51:09;;;;;;;2.77;1.10;;;14.30;78.60;;;17.06;58.23;100537.41;5032657;28;20647;-59
2022/09/16 04:53:40;;;;;;;5.33;1.30;;;14.30;78.50;;;17.05;58.29;100525.13;5032899;28;20293;-56
2022/09/16 04:56:14;;;;;;;3.90;1.60;;;14.20;78.30;;;17.05;58.32;100529.66;5015358;28;20182;-58
2022/09/16 04:58:45;;;;;;;2.83;1.20;;;14.20;78.20;;;17.04;58.28;100523.53;5032695;28;20658;-55
2022/09/16 05:01:18;;;;;;;2.70;1.13;;;14.20;78.20;;;17.05;58.20;100524.31;5037112;28;20685;-56
2022/09/16 05:03:52;;;;;;;3.10;0.97;;;14.20;78.20;;;17.03;58.19;100516.56;5052574;28;20205;-56
2022/09/16 05:06:22;;;;;;;1.30;1.03;;;14.20;78.10;;;17.01;57.96;100521.31;5052185;28;20593;-56
2022/09/16 05:08:52;;;;;;;1.93;1.20;;;14.20;78.00;;;16.97;58.09;100520.13;5051579;28;20190;-56
2022/09/16 05:11:23;;;;;;;2.83;1.20;;;14.20;78.00;;;16.92;58.28;100520.78;5051720;28;20182;-58
2022/09/16 05:13:53;;;;;;;2.33;0.80;;;14.20;77.90;;;16.89;57.83;100520.41;5051278;28;20267;-57
2022/09/16 05:16:22;;;;;;;3.53;1.33;;;14.10;77.80;;;16.86;58.15;100534.97;5051454;28;20240;-54
2022/09/16 05:18:53;;;;;;;1.50;1.10;;;14.10;77.90;;;16.81;58.03;100524.16;5040301;28;20198;-55
2022/09/16 05:21:23;;;;;;;2.10;1.00;;;14.10;77.80;;;16.77;58.27;100527.50;5031204;28;20214;-55
2022/09/16 05:23:54;;;;;;;2.60;1.00;;;14.10;77.90;;;16.74;58.10;100522.59;5031446;28;20260;-56
2022/09/16 05:26:25;;;;;;;1.93;1.07;;;14.00;77.80;;;16.72;58.31;100516.72;5031980;28;20765;-55
2022/09/16 05:28:54;;;;;;;6.23;1.60;;;14.00;78.10;;;16.71;58.33;100518.53;5031425;28;20252;-58
2022/09/16 05:31:25;;;;;;;3.57;1.20;;;14.00;78.10;;;16.70;58.25;100521.44;5031128;28;20244;-54
2022/09/16 05:33:57;;;;;;;3.27;1.23;;;14.00;78.30;;;16.66;58.46;100525.56;5030559;28;20226;-54
2022/09/16 05:36:26;;;;;;;6.47;1.60;;;13.90;78.20;;;16.64;58.81;100519.66;5048739;28;20186;-57
2022/09/16 05:38:55;;;;;;;2.17;1.23;;;13.90;78.40;;;16.63;58.89;100526.00;5051563;28;20201;-55
2022/09/16 05:41:43;;;;;;;3.10;1.70;;;13.90;78.70;;;16.61;58.72;100517.44;5052282;28;20275;-57
2022/09/16 05:44:12;;;;;;;4.33;1.50;;;13.90;78.70;;;16.62;58.65;100524.34;5054601;28;20236;-56
2022/09/16 05:46:40;;;;;;;5.10;1.40;;;13.90;78.80;;;16.60;58.86;100524.59;5054247;28;20197;-56
2022/09/16 05:49:08;;;;;;;4.40;1.20;;;13.90;78.80;;;16.59;58.73;100514.19;5055032;28;20202;-56
2022/09/16 05:51:37;;;;;;;1.73;1.10;;;13.90;79.00;;;16.60;59.14;100526.44;5052924;28;20593;-55
2022/09/16 05:54:05;;;;;;;3.33;1.33;;;13.90;79.10;;;16.60;58.94;100521.13;5054989;28;20186;-58
2022/09/16 05:56:33;;;;;;;4.70;1.40;;;13.80;78.90;;;16.64;58.92;100522.31;5054885;28;20532;-56
2022/09/16 05:59:01;;;;;;;4.60;1.57;;;13.80;79.40;;;16.68;59.05;100523.50;5055227;28;20198;-55
2022/09/16 06:01:32;;;;;;;5.30;1.47;;;13.90;79.30;;;16.71;58.76;100525.72;5054817;28;20271;-57
2022/09/16 06:04:02;;;;;;;4.20;1.57;;;13.90;79.30;;;16.73;59.03;100510.38;5055029;28;20178;-55
2022/09/16 06:06:32;;;;;;;3.20;1.67;;;13.90;79.20;;;16.73;58.88;100524.47;5055815;28;20212;-58
2022/09/16 06:09:04;;;;;;;6.87;1.60;;;13.90;79.20;;;16.77;58.61;100522.19;5053289;28;20192;-54
2022/09/16 06:11:35;;;;;;;3.43;1.30;;;13.90;79.10;;;16.79;58.66;100525.41;5054464;28;20670;-56
2022/09/16 06:14:04;;;;;;;4.33;1.37;;;14.00;79.00;;;16.86;58.77;100526.16;5054882;28;20678;-56
2022/09/16 06:16:34;;;;;;;3.77;1.20;;;14.00;79.10;;;16.93;58.46;100518.94;5054704;28;20186;-55
2022/09/16 06:19:05;;;;;;;8.40;2.03;;;14.10;79.00;;;17.02;58.43;100520.25;5054253;28;20243;-57
2022/09/16 06:21:33;;;;;;;5.80;1.70;;;14.10;79.00;;;17.11;58.37;100524.28;5035604;28;20227;-57
2022/09/16 06:24:02;;;;;;;4.07;1.50;;;14.10;78.80;;;17.15;57.95;100536.09;5034518;28;20206;-57
2022/09/16 06:26:29;;;;;;;2.80;1.27;;;14.20;78.50;;;17.18;57.95;100522.34;5034228;28;20199;-55
2022/09/16 06:28:56;;;;;;;5.67;1.93;;;14.30;78.40;;;17.20;57.48;100533.56;5034164;28;20225;-57
2022/09/16 06:31:26;;;;;;;4.17;1.50;;;14.30;77.70;;;17.23;57.62;100521.69;5034049;28;20194;-57
2022/09/16 06:33:57;;;;;;;3.50;1.47;;;14.30;77.60;;;17.27;57.57;100518.34;5035011;28;20218;-54
2022/09/16 06:36:31;;;;;;;8.13;1.60;;;14.30;77.40;;;17.29;57.12;100518.94;5054503;28;20360;-55
2022/09/16 06:38:58;;;;;;;4.47;1.60;;;14.40;77.30;;;17.33;57.43;100509.44;5054617;28;20553;-53
2022/09/16 06:41:26;;;;;;;4.40;1.07;;;14.40;76.90;;;17.37;56.82;100513.31;5053670;28;20210;-53
2022/09/16 06:43:53;;;;;;;3.30;1.00;;;14.40;76.90;;;17.42;56.77;100508.09;5053997;28;20196;-57
2022/09/16 06:46:25;;;;;;;3.13;1.40;;;14.50;76.90;;;17.48;56.77;100515.19;5054469;28;20197;-54
2022/09/16 06:48:56;;;;;;;2.53;1.50;;;14.50;76.70;;;17.55;56.72;100513.28;5053756;28;20241;-57
2022/09/16 06:51:30;;;;;;;4.77;1.40;;;14.60;76.70;;;17.63;56.41;100506.84;5051614;28;20264;-56
2022/09/16 06:54:01;;;;;;;3.27;1.50;;;14.70;76.40;;;17.70;56.25;100512.91;5053210;28;20626;-53
2022/09/16 06:56:28;;;;;;;4.63;1.60;;;14.70;76.10;;;17.76;56.05;100497.88;5053522;28;20307;-53
2022/09/16 06:58:57;;;;;;;5.43;2.27;;;14.80;75.70;;;17.94;56.09;100508.44;5053819;28;20225;-55
2022/09/16 07:01:27;;;;;;;5.00;1.50;;;14.90;76.20;;;18.31;55.80;100509.06;5053526;28;20275;-52
2022/09/16 07:04:01;;;;;;;2.97;1.50;;;15.00;76.40;;;18.80;55.45;100504.09;5053235;28;20273;-57
2022/09/16 07:06:31;;;;;;;3.27;1.40;;;15.30;77.30;;;19.47;54.56;100499.91;5047014;28;20214;-55
2022/09/16 07:09:19;;;;;;;3.10;1.70;;;15.70;76.10;;;20.20;52.30;100507.91;5033731;28;20270;-58
2022/09/16 07:11:46;;;;;;;3.57;1.30;;;16.30;73.80;;;20.76;50.39;100506.06;5032180;28;20201;-57
2022/09/16 07:14:13;;;;;;;3.23;1.23;;;16.80;70.50;;;21.17;48.69;100510.91;5033975;28;20663;-55
2022/09/16 07:16:40;;;;;;;4.03;1.40;;;17.20;68.80;;;21.50;47.36;100510.78;5034046;28;20194;-57
2022/09/16 07:19:09;;;;;;;2.87;1.53;;;17.60;67.10;;;21.82;46.23;100500.09;5033567;28;20186;-54
2022/09/16 07:21:37;;;;;;;5.90;1.67;;;18.00;64.80;;;22.23;45.61;100501.28;5045568;28;20244;-55
2022/09/16 07:24:04;;;;;;;4.83;1.50;;;18.30;65.10;;;22.69;44.06;100497.88;5053367;28;20232;-56
2022/09/16 07:26:36;;;;;;;1.70;1.00;;;18.70;62.50;;;23.11;43.37;100497.78;5053460;28;20284;-56
2022/09/16 07:29:08;;;;;;;4.60;1.50;;;19.00;62.00;;;23.65;41.90;100500.97;5053482;28;20186;-58
2022/09/16 07:31:37;;;;;;;5.67;1.27;;;19.30;60.00;;;24.15;41.07;100500.22;5051717;28;20657;-54
2022/09/16 07:34:07;;;;;;;3.87;1.57;;;19.70;59.40;;;24.76;40.75;100496.38;5053421;28;20194;-56
2022/09/16 07:36:39;;;;;;;8.13;1.40;;;20.20;58.90;;;25.43;39.05;100509.31;5036025;28;20198;-58
2022/09/16 07:39:08;;;;;;;2.27;1.33;;;20.70;57.10;;;25.95;38.06;100503.31;5033585;28;20178;-56
2022/09/16 07:41:38;;;;;;;2.73;1.30;;;21.10;56.90;;;26.44;36.68;100500.47;5032677;28;20521;-56
2022/09/16 07:44:10;;;;;;;2.97;1.40;;;21.50;55.00;;;26.74;35.35;100502.84;5033144;28;20381;-56
2022/09/16 07:46:37;;;;;;;4.43;1.60;;;21.90;53.20;;;26.78;35.24;100503.94;5032951;28;20607;-56
2022/09/16 07:49:08;;;;;;;3.33;1.37;;;22.20;51.80;;;26.99;34.48;100509.09;5033067;28;20655;-55
2022/09/16 07:51:37;;;;;;;4.90;1.30;;;22.40;51.00;;;27.28;34.11;100499.81;5052518;28;20190;-55
2022/09/16 07:54:08;;;;;;;5.83;1.97;;;22.60;50.80;;;27.63;33.69;100503.13;5052693;28;20601;-56
2022/09/16 07:56:38;;;;;;;3.00;1.60;;;22.90;50.10;;;27.92;33.09;100504.59;5052825;28;20185;-57
2022/09/16 07:59:09;;;;;;;2.63;1.10;;;23.10;49.40;;;28.13;32.39;100516.72;5052646;28;20190;-55
2022/09/16 08:01:42;;;;;;;3.83;1.43;;;23.30;48.00;;;28.24;31.92;100511.13;5052635;28;20221;-57
2022/09/16 08:04:10;;;;;;;2.13;1.50;;;23.50;47.70;;;28.42;31.56;100508.38;5047783;28;20593;-58
2022/09/16 08:06:40;;;;;;;4.13;1.83;;;23.60;47.00;;;28.78;30.83;100511.25;5033444;28;20191;-59
2022/09/16 08:09:07;;;;;;;5.27;1.60;;;23.90;46.10;;;29.03;30.16;100509.91;5032514;28;20339;-58
2022/09/16 08:11:56;;;;;;;3.57;1.80;;;24.00;44.70;;;29.16;29.97;100504.50;5033161;28;20218;-59
2022/09/16 08:14:24;;;;;;;3.97;1.47;;;24.30;44.70;;;29.46;30.07;100506.59;5034986;28;20198;-59
2022/09/16 08:16:51;;;;;;;4.93;1.60;;;24.50;44.90;;;29.90;29.68;100507.78;5034973;28;20656;-60
2022/09/16 08:19:21;;;;;;;4.80;1.60;;;24.70;44.40;;;30.40;29.18;100501.09;5035358;28;20670;-56
2022/09/16 08:21:50;;;;;;;6.03;1.70;;;25.10;44.10;;;30.81;28.34;100504.31;5033053;28;20218;-55
2022/09/16 08:24:18;;;;;;;3.63;1.80;;;25.40;43.10;;;31.06;27.12;100504.72;5032878;28;20194;-55
2022/09/16 08:26:45;;;;;;;3.07;1.47;;;25.60;41.60;;;31.27;27.27;100505.72;5032390;28;20195;-56
2022/09/16 08:29:13;;;;;;;3.17;1.63;;;25.80;41.10;;;31.62;27.14;100507.38;5032345;28;20210;-57
2022/09/16 08:31:40;;;;;;;4.40;2.03;;;26.10;41.00;;;31.90;25.99;100514.09;5031979;28;20217;-56
2022/09/16 08:34:08;;;;;;;4.97;1.80;;;26.40;39.70;;;32.27;26.06;100509.13;5044091;28;20289;-55
2022/09/16 08:36:36;;;;;;;5.90;1.77;;;26.60;40.00;;;32.36;25.71;100515.34;5050896;28;20190;-58
2022/09/16 08:39:05;;;;;;;3.90;1.83;;;26.80;38.20;;;32.48;25.72;100510.00;5051299;28;20335;-59
2022/09/16 08:41:58;;;;;;;3.20;1.93;;;27.00;38.00;;;32.65;25.10;100507.25;5051369;28;20214;-57
2022/09/16 08:44:40;;;;;;;5.67;2.37;;;27.20;37.20;;;32.85;24.82;100506.53;5051347;28;20646;-56
2022/09/16 08:47:26;;;;;;;4.50;2.57;;;27.40;36.80;;;33.05;24.65;100510.44;5050677;28;20181;-57
2022/09/16 08:49:57;;;;;;;4.43;2.20;;;27.60;36.20;;;33.15;23.94;100501.88;5031564;28;20264;-56
2022/09/16 08:52:30;;;;;;;4.60;1.80;;;27.70;35.60;;;33.39;24.19;100494.66;5031114;28;20207;-56
2022/09/16 08:55:06;;;;;;;4.00;1.90;;;27.90;35.80;;;33.56;23.65;100506.63;5031394;28;20210;-57
2022/09/16 08:57:40;;;;;;;5.47;2.13;;;28.00;35.40;;;33.85;22.84;100490.13;5031585;28;20183;-56
2022/09/16 09:00:16;;;;;;;10.33;5.07;;;28.10;34.20;;;34.08;22.99;100499.56;5031666;28;20187;-57
2022/09/16 09:02:52;;;;;;;4.27;2.37;;;28.30;34.40;;;34.39;22.48;100494.41;5039746;28;20216;-54
2022/09/16 09:05:34;;;;;;;9.00;2.80;;;28.50;34.30;;;34.78;22.45;100500.41;5051472;28;20192;-58
2022/09/16 09:08:20;;;;;;;4.83;1.93;;;28.80;33.00;;;34.94;21.18;100499.38;5051026;28;20247;-57
2022/09/16 09:10:56;;;;;;;3.93;2.27;;;29.00;31.60;;;35.06;21.00;100496.66;5051062;28;20190;-56
2022/09/16 09:13:55;;;;;;;6.70;2.03;;;29.20;31.30;;;35.11;20.97;100501.09;5051243;28;20213;-57
2022/09/16 09:16:36;;;;;;;6.13;2.20;;;29.30;31.20;;;35.07;20.34;100500.16;5050373;28;20178;-58
2022/09/16 09:19:30;;;;;;;6.53;2.20;;;29.40;29.80;;;34.83;20.47;100509.16;5050393;28;20189;-57
2022/09/16 09:22:15;;;;;;;6.60;2.63;;;29.40;29.80;;;35.05;20.57;100503.25;5050693;28;20218;-58
2022/09/16 09:25:19;;;;;;;5.03;1.87;;;29.40;30.30;;;35.40;20.23;100503.53;5050824;28;20185;-57
2022/09/16 09:28:11;;;;;;;5.95;2.60;;;29.60;29.10;;;35.35;19.64;100495.53;5051107;28;20182;-57
2022/09/16 09:30:49;;;;;;;6.70;2.70;;;29.70;28.40;;;35.47;19.97;100492.78;5050260;28;20232;-57
2022/09/16 09:33:32;;;;;;;4.90;2.10;;;29.80;29.20;;;35.81;19.09;100505.13;5050980;28;20209;-57
2022/09/16 09:36:44;;;;;;;5.33;2.40;;;29.90;28.40;;;35.54;18.71;100503.97;5050944;28;20182;-57
2022/09/16 09:39:39;;;;;;;4.60;2.33;;;29.60;27.60;;;34.72;19.53;100495.16;5049696;28;20669;-56
2022/09/16 09:42:17;;;;;;;4.27;2.10;;;29.40;28.20;;;34.17;20.13;100496.75;5050094;28;20228;-56
2022/09/16 09:44:55;;;;;;;6.07;2.70;;;29.20;29.00;;;34.10;20.51;100491.81;5050758;28;20568;-55
2022/09/16 09:47:35;;;;;;;13.07;2.53;;;29.10;29.20;;;33.91;20.87;100496.97;5031601;28;20200;-57
2022/09/16 09:50:16;;;;;;;6.10;2.80;;;28.90;29.30;;;33.31;21.42;100492.78;5031217;28;20179;-56
2022/09/16 09:52:53;;;;;;;6.63;3.03;;;28.60;29.70;;;33.10;21.68;100485.69;5030632;28;20206;-56
2022/09/16 09:55:23;;;;;;;8.47;2.33;;;28.40;29.90;;;33.09;21.91;100473.97;5030833;28;20277;-54
2022/09/16 09:58:11;;;;;;;7.33;2.70;;;28.30;30.30;;;33.58;21.28;100466.09;5030742;28;20210;-56
2022/09/16 10:00:40;;;;;;;5.03;2.80;;;28.30;30.50;;;33.05;21.08;100464.06;5038181;28;20602;-58
2022/09/16 10:03:13;;;;;;;7.83;2.63;;;28.00;29.90;;;32.23;22.40;100472.75;5050397;28;20682;-58
2022/09/16 10:05:41;;;;;;;6.80;2.03;;;27.80;30.40;;;31.17;23.83;100490.50;5050433;28;20209;-57
2022/09/16 10:08:21;;;;;;;6.47;2.00;;;27.30;32.10;;;29.99;25.47;100481.47;5050620;28;20193;-56
2022/09/16 10:10:51;;;;;;;5.60;3.00;;;26.60;34.60;;;28.96;26.58;100480.50;5050325;28;20236;-57
2022/09/16 10:13:21;;;;;;;3.87;1.50;;;25.90;34.70;;;28.56;27.29;100465.84;5050430;28;20222;-56
2022/09/16 10:15:54;;;;;;;2.87;1.53;;;25.30;35.80;;;28.85;27.19;100465.56;5036923;28;20353;-57
2022/09/16 10:18:28;;;;;;;4.50;2.63;;;25.10;37.40;;;29.17;27.31;100465.41;5048581;28;20220;-57
2022/09/16 10:21:03;;;;;;;4.27;1.93;;;24.90;37.70;;;29.31;26.38;100463.50;5049711;28;20194;-58
2022/09/16 10:23:32;;;;;;;5.63;2.00;;;24.80;36.70;;;28.96;26.54;100458.81;5049969;28;20210;-56
2022/09/16 10:26:18;;;;;;;3.83;1.70;;;24.60;36.50;;;28.83;26.09;100465.06;5050519;28;20190;-56
2022/09/16 10:28:56;;;;;;;6.27;2.47;;;24.50;36.20;;;28.57;26.45;100458.53;5050529;28;20258;-58
2022/09/16 10:31:30;;;;;;;9.23;2.70;;;24.30;36.50;;;28.40;26.94;100455.59;5034277;28;20185;-57
2022/09/16 10:34:04;;;;;;;2.50;1.63;;;24.20;37.10;;;28.59;26.87;100453.59;5034403;28;20248;-58
2022/09/16 10:36:34;;;;;;;5.73;2.60;;;24.10;37.50;;;28.78;26.85;100446.19;5048756;28;20205;-57
2022/09/16 10:39:03;;;;;;;3.97;1.67;;;24.10;37.80;;;28.79;26.10;100436.94;5054608;28;20175;-58